createdAt,value
2023-05-05T00:01:55.861Z,3.40
2023-05-05T00:04:41.084Z,4.15
2023-05-05T00:07:26.202Z,4.35
2023-05-05T00:10:14.748Z,4.15
2023-05-05T00:13:06.534Z,4.55
2023-05-05T00:15:56.358Z,3.55
2023-05-05T00:21:27.851Z,4.35
2023-05-05T00:24:12.916Z,4.07
2023-05-05T00:26:58.110Z,4.00
2023-05-05T00:29:43.236Z,3.95
2023-05-05T00:32:28.655Z,3.70
2023-05-05T00:35:13.890Z,3.40
2023-05-05T00:37:59.464Z,3.80
2023-05-05T00:40:44.773Z,3.75
2023-05-05T00:43:30.234Z,3.53
2023-05-05T00:46:24.325Z,4.20
2023-05-05T00:49:10.121Z,4.32
2023-05-05T00:51:56.092Z,4.05
2023-05-05T00:54:41.545Z,3.75
2023-05-05T00:57:28.480Z,3.80
2023-05-05T01:00:14.285Z,3.85
2023-05-05T01:03:00.001Z,4.10
2023-05-05T01:06:01.664Z,4.22
2023-05-05T01:12:07.633Z,3.95
2023-05-05T01:15:01.191Z,3.83
2023-05-05T01:18:33.049Z,3.60
2023-05-05T01:21:53.621Z,3.65
2023-05-05T01:24:47.581Z,3.72
2023-05-05T01:27:59.320Z,3.95
2023-05-05T01:31:03.411Z,3.95
2023-05-05T01:33:51.902Z,3.55
2023-05-05T01:36:45.354Z,3.75
2023-05-05T01:39:34.910Z,3.92
2023-05-05T01:45:09.265Z,3.90
2023-05-05T01:47:56.998Z,4.28
2023-05-05T01:50:46.598Z,3.85
2023-05-05T01:53:33.278Z,4.50
2023-05-05T01:56:22.680Z,4.38
2023-05-05T01:59:09.893Z,3.97
2023-05-05T02:01:57.358Z,3.97
2023-05-05T02:04:44.162Z,3.95
2023-05-05T02:07:33.107Z,3.90
2023-05-05T02:10:18.662Z,3.50
2023-05-05T02:13:05.936Z,3.50
2023-05-05T02:15:53.279Z,3.30
2023-05-05T02:18:39.073Z,3.85
2023-05-05T02:21:24.116Z,3.88
2023-05-05T02:24:09.502Z,4.40
2023-05-05T02:26:57.979Z,4.75
2023-05-05T02:29:53.627Z,3.65
2023-05-05T02:32:50.528Z,3.97
2023-05-05T02:35:42.036Z,4.25
2023-05-05T02:38:33.187Z,4.30
2023-05-05T02:41:20.968Z,4.20
2023-05-05T02:44:08.291Z,4.15
2023-05-05T02:46:54.950Z,3.67
2023-05-05T02:49:42.998Z,4.05
2023-05-05T02:52:28.540Z,3.85
2023-05-05T02:55:13.810Z,4.28
2023-05-05T02:58:21.574Z,4.15
2023-05-05T03:01:29.263Z,4.35
2023-05-05T03:04:29.192Z,4.68
2023-05-05T03:07:27.612Z,4.35
2023-05-05T03:10:18.359Z,4.82
2023-05-05T03:13:11.261Z,4.32
2023-05-05T03:16:06.540Z,4.63
2023-05-05T03:18:52.840Z,4.65
2023-05-05T03:21:40.070Z,4.55
2023-05-05T03:24:25.939Z,4.53
2023-05-05T03:27:20.374Z,4.15
2023-05-05T03:30:06.757Z,4.18
2023-05-05T03:32:54.920Z,4.50
2023-05-05T03:35:40.192Z,4.55
2023-05-05T03:38:28.075Z,4.18
2023-05-05T03:41:13.509Z,4.85
2023-05-05T03:43:59.586Z,4.65
2023-05-05T03:46:45.623Z,4.57
2023-05-05T03:49:33.116Z,4.22
2023-05-05T03:52:18.571Z,3.72
2023-05-05T03:55:04.281Z,4.72
2023-05-05T03:57:49.449Z,3.92
2023-05-05T04:00:34.863Z,4.22
2023-05-05T04:03:20.505Z,4.13
2023-05-05T04:06:06.110Z,4.60
2023-05-05T04:08:51.820Z,4.55
2023-05-05T04:11:36.785Z,4.60
2023-05-05T04:14:22.266Z,4.03
2023-05-05T04:17:07.986Z,5.60
2023-05-05T04:19:53.899Z,4.03
2023-05-05T04:22:39.084Z,4.85
2023-05-05T04:25:24.420Z,4.70
2023-05-05T04:28:09.712Z,4.65
2023-05-05T04:30:55.050Z,4.50
2023-05-05T04:33:40.343Z,5.30
2023-05-05T04:36:25.981Z,4.47
2023-05-05T04:39:11.735Z,5.20
2023-05-05T04:41:56.838Z,4.53
2023-05-05T04:44:42.776Z,4.65
2023-05-05T04:47:28.037Z,4.82
2023-05-05T04:50:13.885Z,4.88
2023-05-05T04:52:59.018Z,4.38
2023-05-05T04:55:44.420Z,4.45
2023-05-05T04:58:29.903Z,4.40
2023-05-05T05:01:14.914Z,4.80
2023-05-05T05:04:00.492Z,4.80
2023-05-05T05:06:45.980Z,4.60
2023-05-05T05:09:31.569Z,5.53
2023-05-05T05:12:17.224Z,4.95
2023-05-05T05:15:02.620Z,5.03
2023-05-05T05:17:48.332Z,4.80
2023-05-05T05:20:33.718Z,5.15
2023-05-05T05:23:19.399Z,5.10
2023-05-05T05:26:06.405Z,5.32
2023-05-05T05:28:52.445Z,5.35
2023-05-05T05:31:39.663Z,6.40
2023-05-05T05:34:25.939Z,4.93
2023-05-05T05:37:11.358Z,4.65
2023-05-05T05:39:56.862Z,5.32
2023-05-05T05:42:43.763Z,7.15
2023-05-05T05:45:29.450Z,4.68
2023-05-05T05:48:15.213Z,5.28
2023-05-05T05:51:02.005Z,5.53
2023-05-05T05:53:47.554Z,5.65
2023-05-05T05:56:33.061Z,5.10
2023-05-05T05:59:18.931Z,5.78
2023-05-05T06:02:04.468Z,5.10
2023-05-05T06:04:51.004Z,5.45
2023-05-05T06:07:36.122Z,5.75
2023-05-05T06:13:12.219Z,6.10
2023-05-05T06:16:01.504Z,5.72
2023-05-05T06:18:47.093Z,5.57
2023-05-05T06:21:32.589Z,6.40
2023-05-05T06:24:17.943Z,5.20
2023-05-05T06:27:03.609Z,6.03
2023-05-05T06:29:49.045Z,5.63
2023-05-05T06:32:34.552Z,5.65
2023-05-05T06:35:20.961Z,6.47
2023-05-05T06:38:06.448Z,5.25
2023-05-05T06:40:51.703Z,5.85
2023-05-05T06:43:37.064Z,6.22
2023-05-05T06:46:26.169Z,5.78
2023-05-05T06:49:11.388Z,4.90
2023-05-05T06:51:56.941Z,5.38
2023-05-05T06:54:43.619Z,5.30
2023-05-05T06:57:29.089Z,4.88
2023-05-05T07:00:15.004Z,5.32
2023-05-05T07:03:00.629Z,5.10
2023-05-05T07:05:45.936Z,5.63
2023-05-05T07:08:31.304Z,5.03
2023-05-05T07:11:16.810Z,4.95
2023-05-05T07:14:02.250Z,4.55
2023-05-05T07:16:47.519Z,5.63
2023-05-05T07:19:35.190Z,4.72
2023-05-05T07:22:20.512Z,4.85
2023-05-05T07:25:06.581Z,4.90
2023-05-05T07:27:51.618Z,4.88
2023-05-05T07:30:39.605Z,4.75
2023-05-05T07:36:48.567Z,5.30
2023-05-05T07:39:33.943Z,5.47
2023-05-05T07:42:20.851Z,5.15
2023-05-05T07:45:07.802Z,4.65
2023-05-05T07:47:52.926Z,4.32
2023-05-05T07:50:38.467Z,4.63
2023-05-05T07:53:23.654Z,4.88
2023-05-05T07:56:09.248Z,4.30
2023-05-05T07:58:55.111Z,4.82
2023-05-05T08:01:40.283Z,5.03
2023-05-05T08:04:25.844Z,5.45
2023-05-05T08:07:11.001Z,4.93
2023-05-05T08:09:56.240Z,5.85
2023-05-05T08:12:41.673Z,5.20
2023-05-05T08:15:26.782Z,4.82
2023-05-05T08:18:12.361Z,5.00
2023-05-05T08:20:57.922Z,4.97
2023-05-05T08:23:43.976Z,4.80
2023-05-05T08:26:29.036Z,5.18
2023-05-05T08:29:13.972Z,5.70
2023-05-05T08:31:59.564Z,5.10
2023-05-05T08:34:45.385Z,5.53
2023-05-05T08:37:34.266Z,5.53
2023-05-05T08:40:22.789Z,4.95
2023-05-05T08:43:08.192Z,4.97
2023-05-05T08:45:56.130Z,5.57
2023-05-05T08:48:45.804Z,5.07
2023-05-05T08:51:41.781Z,5.32
2023-05-05T08:54:30.638Z,5.25
2023-05-05T08:57:23.066Z,5.67
2023-05-05T09:00:10.203Z,6.03
2023-05-05T09:03:03.191Z,4.95
2023-05-05T09:05:48.765Z,4.78
2023-05-05T09:08:34.164Z,5.10
2023-05-05T09:11:19.901Z,6.63
2023-05-05T09:14:05.373Z,5.63
2023-05-05T09:16:50.601Z,5.68
2023-05-05T09:20:05.674Z,5.45
2023-05-05T09:22:51.501Z,7.00
2023-05-05T09:25:36.882Z,5.68
2023-05-05T09:28:22.126Z,4.75
2023-05-05T09:31:16.274Z,5.80
2023-05-05T09:34:03.570Z,5.13
2023-05-05T09:36:49.312Z,5.55
2023-05-05T09:39:35.067Z,5.13
2023-05-05T09:42:23.431Z,4.75
2023-05-05T09:45:27.597Z,4.85
2023-05-05T09:48:30.498Z,4.80
2023-05-05T09:51:16.103Z,4.75
2023-05-05T09:54:01.681Z,5.18
2023-05-05T09:56:47.623Z,4.80
2023-05-05T09:59:32.876Z,4.78
2023-05-05T10:02:18.231Z,4.85
2023-05-05T10:05:14.487Z,4.65
2023-05-05T10:08:13.188Z,5.22
2023-05-05T10:11:00.826Z,4.47
2023-05-05T10:13:46.360Z,4.75
2023-05-05T10:16:33.177Z,5.18
2023-05-05T10:19:24.167Z,4.20
2023-05-05T10:22:10.739Z,4.88
2023-05-05T10:25:03.032Z,4.72
2023-05-05T10:27:52.862Z,4.80
2023-05-05T10:30:49.032Z,5.28
2023-05-05T10:33:47.714Z,4.22
2023-05-05T10:36:33.403Z,3.90
2023-05-05T10:39:20.149Z,5.20
2023-05-05T10:42:05.312Z,4.35
2023-05-05T10:44:51.961Z,4.30
2023-05-05T10:47:40.331Z,5.18
2023-05-05T10:50:28.566Z,5.10
2023-05-05T10:53:27.877Z,5.28
2023-05-05T10:56:26.591Z,4.97
2023-05-05T10:59:37.083Z,4.40
2023-05-05T11:02:30.154Z,5.22
2023-05-05T11:05:18.093Z,4.70
2023-05-05T11:08:27.011Z,4.55
2023-05-05T11:11:16.031Z,5.03
2023-05-05T11:14:28.284Z,3.92
2023-05-05T11:17:45.341Z,4.25
2023-05-05T11:20:43.485Z,3.97
2023-05-05T11:23:29.994Z,4.55
2023-05-05T11:26:16.619Z,4.85
2023-05-05T11:29:04.596Z,3.95
2023-05-05T11:32:16.376Z,4.32
2023-05-05T11:35:06.164Z,4.15
2023-05-05T11:38:03.473Z,4.25
2023-05-05T11:40:50.088Z,4.55
2023-05-05T11:43:35.519Z,4.35
2023-05-05T11:46:21.225Z,4.05
2023-05-05T11:49:08.967Z,4.18
2023-05-05T11:52:04.637Z,4.25
2023-05-05T11:54:50.582Z,4.00
2023-05-05T11:57:35.624Z,4.05
2023-05-05T12:00:32.337Z,3.90
2023-05-05T12:03:17.769Z,4.40
2023-05-05T12:06:07.401Z,3.80
2023-05-05T12:08:53.650Z,4.60
2023-05-05T12:11:51.077Z,3.80
2023-05-05T12:14:36.574Z,3.38
2023-05-05T12:17:23.377Z,3.13
2023-05-05T12:20:10.451Z,4.10
2023-05-05T12:23:03.106Z,3.40
2023-05-05T12:25:48.348Z,3.75
2023-05-05T12:28:54.165Z,3.80
2023-05-05T12:31:41.729Z,3.33
2023-05-05T12:34:27.535Z,3.78
2023-05-05T12:37:12.981Z,3.63
2023-05-05T12:39:58.596Z,3.95
2023-05-05T12:42:45.123Z,4.55
2023-05-05T12:45:31.258Z,8.07
2023-05-05T12:48:22.872Z,3.22
2023-05-05T12:51:19.830Z,2.85
2023-05-05T12:54:11.332Z,3.53
2023-05-05T12:56:59.602Z,2.70
2023-05-05T12:59:45.040Z,3.22
2023-05-05T13:02:34.278Z,4.38
2023-05-05T13:05:52.551Z,4.20
2023-05-05T13:08:47.420Z,3.58
2023-05-05T13:11:37.621Z,3.22
2023-05-05T13:14:23.589Z,3.47
2023-05-05T13:17:09.801Z,3.42
2023-05-05T13:19:55.262Z,3.28
2023-05-05T13:22:40.739Z,3.25
2023-05-05T13:25:26.040Z,3.47
2023-05-05T13:28:11.281Z,3.55
2023-05-05T13:30:58.525Z,3.33
2023-05-05T13:33:43.568Z,3.60
2023-05-05T13:36:29.043Z,2.88
2023-05-05T13:39:14.334Z,3.55
2023-05-05T13:41:59.513Z,2.97
2023-05-05T13:44:45.024Z,3.40
2023-05-05T13:47:30.146Z,3.55
2023-05-05T13:50:15.572Z,2.83
2023-05-05T13:53:00.968Z,2.63
2023-05-05T13:55:46.434Z,2.97
2023-05-05T13:58:31.694Z,3.15
2023-05-05T14:01:17.192Z,3.78
2023-05-05T14:04:05.133Z,2.95
2023-05-05T14:06:51.317Z,3.13
2023-05-05T14:09:36.373Z,3.35
2023-05-05T14:12:21.531Z,3.45
2023-05-05T14:15:07.504Z,3.75
2023-05-05T14:17:53.272Z,3.05
2023-05-05T14:20:38.545Z,2.78
2023-05-05T14:23:23.718Z,3.70
2023-05-05T14:26:09.256Z,3.17
2023-05-05T14:28:54.568Z,3.20
2023-05-05T14:31:39.751Z,3.17
2023-05-05T14:34:25.196Z,3.25
2023-05-05T14:37:10.712Z,3.33
2023-05-05T14:39:56.258Z,3.00
2023-05-05T14:42:41.856Z,3.60
2023-05-05T14:45:29.638Z,3.53
2023-05-05T14:48:16.069Z,3.67
2023-05-05T14:51:01.656Z,3.28
2023-05-05T14:53:47.532Z,4.43
2023-05-05T14:56:32.934Z,4.03
2023-05-05T14:59:18.228Z,2.92
2023-05-05T15:02:03.444Z,3.53
2023-05-05T15:04:49.861Z,3.58
2023-05-05T15:07:34.918Z,3.92
